DLH9K EDDF-EDDH
Flight info
| Callsign | DLH9K |
|---|---|
| Flight time | 0h 46m |
| Altitude | 33000 |
| Route | MARUN3W/25C MARUN Y150 TOLGI DCT SAS P605 NOLGO NOLGO6A |
| Aircraft | A20N/M-SDE2E3FGHIRWXY/LB1 |
Departure
| Time | 2026-05-05 17:35 |
|---|---|
| Airport | Frankfurt Main Airport (EDDF) |
Arrival
| Time | 2026-05-05 18:21 |
|---|---|
| Airport | Hamburg Helmut Schmidt Airport (EDDH) |
| Time | Latitude | Longitude | Altitude | Speed | Heading |
|---|---|---|---|---|---|
| 2026-05-05 16:56 | 50.04753 | 8.56878 | 340 ft | 0 kts | 295° |
| 2026-05-05 16:57 | 50.04751 | 8.56888 | 360 ft | 0 kts | 295° |
| 2026-05-05 17:21 | 50.04748 | 8.56901 | 346 ft | 4 kts | 294° |
| 2026-05-05 17:21 | 50.04737 | 8.56940 | 355 ft | 4 kts | 285° |
| 2026-05-05 17:21 | 50.04734 | 8.56979 | 354 ft | 4 kts | 252° |
| 2026-05-05 17:22 | 50.04741 | 8.56999 | 353 ft | 0 kts | 205° |
| 2026-05-05 17:26 | 50.04733 | 8.56993 | 355 ft | 3 kts | 205° |
| 2026-05-05 17:26 | 50.04703 | 8.56972 | 349 ft | 7 kts | 205° |
| 2026-05-05 17:26 | 50.04650 | 8.56934 | 357 ft | 10 kts | 204° |
| 2026-05-05 17:26 | 50.04576 | 8.56901 | 352 ft | 12 kts | 193° |
| 2026-05-05 17:27 | 50.04482 | 8.56867 | 350 ft | 15 kts | 193° |
| 2026-05-05 17:27 | 50.04371 | 8.56835 | 347 ft | 17 kts | 190° |
| 2026-05-05 17:27 | 50.04285 | 8.56823 | 347 ft | 5 kts | 134° |
| 2026-05-05 17:27 | 50.04275 | 8.56897 | 351 ft | 9 kts | 76° |
| 2026-05-05 17:28 | 50.04305 | 8.57010 | 356 ft | 14 kts | 68° |
| 2026-05-05 17:28 | 50.04342 | 8.57171 | 353 ft | 18 kts | 71° |
| 2026-05-05 17:28 | 50.04388 | 8.57376 | 351 ft | 22 kts | 71° |
| 2026-05-05 17:28 | 50.04440 | 8.57593 | 352 ft | 21 kts | 69° |
| 2026-05-05 17:29 | 50.04487 | 8.57789 | 353 ft | 18 kts | 70° |
| 2026-05-05 17:29 | 50.04529 | 8.57964 | 356 ft | 16 kts | 69° |
| 2026-05-05 17:29 | 50.04571 | 8.58137 | 351 ft | 18 kts | 69° |
| 2026-05-05 17:29 | 50.04617 | 8.58328 | 351 ft | 20 kts | 69° |
| 2026-05-05 17:30 | 50.04656 | 8.58534 | 355 ft | 14 kts | 103° |
| 2026-05-05 17:30 | 50.04607 | 8.58579 | 353 ft | 9 kts | 157° |
| 2026-05-05 17:30 | 50.04588 | 8.58591 | 349 ft | 0 kts | 159° |
| 2026-05-05 17:31 | 50.04580 | 8.58596 | 347 ft | 4 kts | 159° |
| 2026-05-05 17:31 | 50.04531 | 8.58624 | 355 ft | 10 kts | 159° |
| 2026-05-05 17:31 | 50.04484 | 8.58580 | 350 ft | 11 kts | 252° |
| 2026-05-05 17:32 | 50.04482 | 8.58572 | 349 ft | 0 kts | 250° |
| 2026-05-05 17:34 | 50.04433 | 8.58365 | 353 ft | 56 kts | 249° |
| 2026-05-05 17:34 | 50.04220 | 8.57471 | 356 ft | 119 kts | 249° |
| 2026-05-05 17:35 | 50.03884 | 8.56024 | 440 ft | 156 kts | 250° |
| 2026-05-05 17:35 | 50.03529 | 8.54440 | 1036 ft | 156 kts | 251° |
| 2026-05-05 17:35 | 50.03156 | 8.52813 | 1683 ft | 159 kts | 251° |
| 2026-05-05 17:35 | 50.02775 | 8.51218 | 2304 ft | 163 kts | 250° |
| 2026-05-05 17:36 | 50.02169 | 8.49619 | 2681 ft | 182 kts | 229° |
| 2026-05-05 17:36 | 50.01115 | 8.48378 | 3007 ft | 201 kts | 206° |
| 2026-05-05 17:36 | 49.99725 | 8.47849 | 3474 ft | 210 kts | 187° |
| 2026-05-05 17:36 | 49.98277 | 8.47586 | 4245 ft | 209 kts | 188° |
| 2026-05-05 17:37 | 49.96936 | 8.47312 | 5058 ft | 207 kts | 188° |
| 2026-05-05 17:37 | 49.95532 | 8.46876 | 5957 ft | 207 kts | 197° |
| 2026-05-05 17:37 | 49.94106 | 8.46200 | 6652 ft | 223 kts | 197° |
| 2026-05-05 17:37 | 49.92572 | 8.45406 | 7303 ft | 241 kts | 207° |
| 2026-05-05 17:38 | 49.91288 | 8.43745 | 8293 ft | 244 kts | 233° |
| 2026-05-05 17:38 | 49.90638 | 8.41309 | 9374 ft | 250 kts | 260° |
| 2026-05-05 17:38 | 49.90814 | 8.38602 | 10336 ft | 260 kts | 288° |
| 2026-05-05 17:38 | 49.91835 | 8.36240 | 11256 ft | 272 kts | 315° |
| 2026-05-05 17:39 | 49.93479 | 8.34695 | 12139 ft | 284 kts | 333° |
| 2026-05-05 17:39 | 49.95378 | 8.33491 | 12615 ft | 308 kts | 336° |
| 2026-05-05 17:39 | 49.97482 | 8.32268 | 12802 ft | 338 kts | 337° |
| 2026-05-05 17:39 | 49.99761 | 8.30908 | 12838 ft | 357 kts | 336° |
| 2026-05-05 17:40 | 50.02065 | 8.29486 | 12843 ft | 359 kts | 337° |
| 2026-05-05 17:40 | 50.04536 | 8.28675 | 13279 ft | 367 kts | 355° |
| 2026-05-05 17:40 | 50.07040 | 8.29046 | 14187 ft | 371 kts | 13° |
| 2026-05-05 17:40 | 50.09524 | 8.30256 | 14995 ft | 376 kts | 18° |
| 2026-05-05 17:41 | 50.12025 | 8.31550 | 15783 ft | 380 kts | 18° |
| 2026-05-05 17:41 | 50.14546 | 8.32868 | 16574 ft | 385 kts | 18° |
| 2026-05-05 17:41 | 50.17098 | 8.34207 | 17333 ft | 389 kts | 18° |
| 2026-05-05 17:41 | 50.19681 | 8.35564 | 18108 ft | 394 kts | 18° |
| 2026-05-05 17:42 | 50.22293 | 8.36935 | 18789 ft | 397 kts | 18° |
| 2026-05-05 17:42 | 50.24911 | 8.38340 | 19473 ft | 401 kts | 22° |
| 2026-05-05 17:42 | 50.27373 | 8.40312 | 20127 ft | 404 kts | 30° |
| 2026-05-05 17:42 | 50.29837 | 8.42481 | 20775 ft | 408 kts | 30° |
| 2026-05-05 17:43 | 50.32318 | 8.44685 | 21437 ft | 412 kts | 30° |
| 2026-05-05 17:43 | 50.34815 | 8.46922 | 22085 ft | 416 kts | 31° |
| 2026-05-05 17:43 | 50.37333 | 8.49193 | 22710 ft | 420 kts | 31° |
| 2026-05-05 17:43 | 50.39876 | 8.51496 | 23322 ft | 424 kts | 31° |
| 2026-05-05 17:44 | 50.42439 | 8.53822 | 23877 ft | 428 kts | 31° |
| 2026-05-05 17:44 | 50.45022 | 8.56168 | 24384 ft | 431 kts | 31° |
| 2026-05-05 17:44 | 50.47632 | 8.58544 | 24885 ft | 435 kts | 31° |
| 2026-05-05 17:44 | 50.50258 | 8.60936 | 25388 ft | 438 kts | 31° |
| 2026-05-05 17:45 | 50.52903 | 8.63349 | 25874 ft | 442 kts | 31° |
| 2026-05-05 17:45 | 50.55575 | 8.65789 | 26358 ft | 445 kts | 31° |
| 2026-05-05 17:45 | 50.58255 | 8.68241 | 26813 ft | 449 kts | 31° |
| 2026-05-05 17:45 | 50.60777 | 8.70551 | 27236 ft | 452 kts | 31° |
| 2026-05-05 17:46 | 50.63508 | 8.73057 | 27692 ft | 456 kts | 31° |
| 2026-05-05 17:46 | 50.66254 | 8.75578 | 28138 ft | 459 kts | 31° |
| 2026-05-05 17:46 | 50.69024 | 8.78126 | 28561 ft | 462 kts | 31° |
| 2026-05-05 17:46 | 50.71818 | 8.80699 | 28964 ft | 466 kts | 31° |
| 2026-05-05 17:47 | 50.74589 | 8.83254 | 29351 ft | 469 kts | 31° |
| 2026-05-05 17:47 | 50.77419 | 8.85868 | 29750 ft | 472 kts | 31° |
| 2026-05-05 17:47 | 50.80300 | 8.88533 | 30113 ft | 475 kts | 31° |
| 2026-05-05 17:47 | 50.83159 | 8.91181 | 30466 ft | 478 kts | 31° |
| 2026-05-05 17:48 | 50.86039 | 8.93852 | 30822 ft | 481 kts | 31° |
| 2026-05-05 17:48 | 50.88931 | 8.96538 | 31236 ft | 482 kts | 31° |
| 2026-05-05 17:48 | 50.91810 | 8.99216 | 31630 ft | 481 kts | 31° |
| 2026-05-05 17:48 | 50.94699 | 9.01907 | 31777 ft | 480 kts | 31° |
| 2026-05-05 17:49 | 50.97571 | 9.04586 | 31804 ft | 479 kts | 31° |
| 2026-05-05 17:49 | 51.03319 | 9.09961 | 31803 ft | 480 kts | 31° |
| 2026-05-05 17:50 | 51.09076 | 9.15361 | 31803 ft | 481 kts | 31° |
| 2026-05-05 17:50 | 51.14845 | 9.20787 | 31801 ft | 482 kts | 31° |
| 2026-05-05 17:51 | 51.20592 | 9.26208 | 31807 ft | 483 kts | 31° |
| 2026-05-05 17:51 | 51.26371 | 9.31636 | 31801 ft | 484 kts | 29° |
| 2026-05-05 17:52 | 51.32652 | 9.35550 | 31803 ft | 485 kts | 14° |
| 2026-05-05 17:52 | 51.39244 | 9.37868 | 31801 ft | 485 kts | 12° |
| 2026-05-05 17:53 | 51.45848 | 9.40202 | 31812 ft | 486 kts | 12° |
| 2026-05-05 17:53 | 51.52461 | 9.42529 | 31798 ft | 485 kts | 11° |
| 2026-05-05 17:54 | 51.59063 | 9.44850 | 31812 ft | 486 kts | 11° |
| 2026-05-05 17:54 | 51.65660 | 9.47174 | 31810 ft | 486 kts | 11° |
| 2026-05-05 17:55 | 51.72255 | 9.49504 | 31812 ft | 485 kts | 11° |
| 2026-05-05 17:55 | 51.78845 | 9.51840 | 31817 ft | 485 kts | 11° |
| 2026-05-05 17:56 | 51.85260 | 9.55263 | 31831 ft | 487 kts | 25° |
| 2026-05-05 17:56 | 51.91304 | 9.60255 | 31829 ft | 488 kts | 26° |
| 2026-05-05 17:57 | 51.97355 | 9.65238 | 31835 ft | 488 kts | 26° |
| 2026-05-05 17:57 | 52.03398 | 9.70251 | 31838 ft | 488 kts | 26° |
| 2026-05-05 17:58 | 52.09455 | 9.75305 | 31849 ft | 489 kts | 26° |
| 2026-05-05 17:58 | 52.15472 | 9.80342 | 31851 ft | 490 kts | 26° |
| 2026-05-05 17:59 | 52.21541 | 9.85438 | 31856 ft | 490 kts | 26° |
| 2026-05-05 17:59 | 52.27828 | 9.89619 | 31856 ft | 488 kts | 13° |
| 2026-05-05 18:00 | 52.34398 | 9.92478 | 31862 ft | 488 kts | 13° |
| 2026-05-05 18:00 | 52.40957 | 9.95391 | 31859 ft | 488 kts | 13° |
| 2026-05-05 18:01 | 52.47508 | 9.98294 | 31860 ft | 488 kts | 13° |
| 2026-05-05 18:01 | 52.54060 | 10.01199 | 31856 ft | 488 kts | 13° |
| 2026-05-05 18:02 | 52.60609 | 10.04114 | 31860 ft | 488 kts | 13° |
| 2026-05-05 18:02 | 52.67123 | 10.07028 | 31858 ft | 488 kts | 13° |
| 2026-05-05 18:03 | 52.73680 | 10.09970 | 31862 ft | 487 kts | 13° |
| 2026-05-05 18:03 | 52.79229 | 10.11728 | 31883 ft | 483 kts | 1° |
| 2026-05-05 18:04 | 52.86954 | 10.12049 | 31182 ft | 473 kts | 357° |
| 2026-05-05 18:04 | 52.89173 | 10.12131 | 30527 ft | 472 kts | 358° |
| 2026-05-05 18:04 | 52.92446 | 10.12252 | 29545 ft | 468 kts | 358° |
| 2026-05-05 18:04 | 52.95637 | 10.12367 | 28599 ft | 460 kts | 358° |
| 2026-05-05 18:05 | 52.98853 | 10.12485 | 27655 ft | 454 kts | 359° |
| 2026-05-05 18:05 | 53.01927 | 10.13207 | 26760 ft | 451 kts | 13° |
| 2026-05-05 18:05 | 53.04833 | 10.15084 | 25871 ft | 448 kts | 27° |
| 2026-05-05 18:05 | 53.07435 | 10.17879 | 25032 ft | 443 kts | 34° |
| 2026-05-05 18:06 | 53.09907 | 10.20992 | 24181 ft | 437 kts | 43° |
| 2026-05-05 18:06 | 53.11251 | 10.23445 | 23655 ft | 433 kts | 52° |
| 2026-05-05 18:06 | 53.13604 | 10.28735 | 22476 ft | 424 kts | 54° |
| 2026-05-05 18:06 | 53.15328 | 10.32673 | 21626 ft | 417 kts | 54° |
| 2026-05-05 18:07 | 53.17021 | 10.36544 | 20781 ft | 410 kts | 54° |
| 2026-05-05 18:07 | 53.18682 | 10.40354 | 19975 ft | 404 kts | 54° |
| 2026-05-05 18:07 | 53.20321 | 10.44122 | 19174 ft | 398 kts | 54° |
| 2026-05-05 18:07 | 53.21937 | 10.47847 | 18406 ft | 392 kts | 54° |
| 2026-05-05 18:08 | 53.23678 | 10.51288 | 17542 ft | 386 kts | 40° |
| 2026-05-05 18:08 | 53.25902 | 10.53692 | 16652 ft | 379 kts | 21° |
| 2026-05-05 18:08 | 53.28389 | 10.54654 | 16321 ft | 357 kts | 0° |
| 2026-05-05 18:08 | 53.30797 | 10.54259 | 15784 ft | 343 kts | 343° |
| 2026-05-05 18:09 | 53.32994 | 10.52832 | 15084 ft | 336 kts | 329° |
| 2026-05-05 18:09 | 53.34881 | 10.50580 | 14380 ft | 331 kts | 315° |
| 2026-05-05 18:09 | 53.36356 | 10.47674 | 13667 ft | 326 kts | 301° |
| 2026-05-05 18:09 | 53.37365 | 10.44258 | 12503 ft | 332 kts | 287° |
| 2026-05-05 18:10 | 53.37807 | 10.40459 | 11522 ft | 333 kts | 275° |
| 2026-05-05 18:10 | 53.38063 | 10.36616 | 10738 ft | 329 kts | 275° |
| 2026-05-05 18:10 | 53.38332 | 10.32847 | 10125 ft | 321 kts | 276° |
| 2026-05-05 18:10 | 53.38593 | 10.29370 | 9930 ft | 301 kts | 276° |
| 2026-05-05 18:11 | 53.38848 | 10.26006 | 9727 ft | 283 kts | 276° |
| 2026-05-05 18:11 | 53.39088 | 10.22823 | 9205 ft | 277 kts | 276° |
| 2026-05-05 18:11 | 53.39326 | 10.19614 | 8766 ft | 277 kts | 276° |
| 2026-05-05 18:11 | 53.39562 | 10.16383 | 8361 ft | 275 kts | 276° |
| 2026-05-05 18:12 | 53.39787 | 10.13280 | 7936 ft | 273 kts | 276° |
| 2026-05-05 18:12 | 53.40015 | 10.10076 | 7544 ft | 272 kts | 276° |
| 2026-05-05 18:12 | 53.40229 | 10.06973 | 7132 ft | 271 kts | 276° |
| 2026-05-05 18:12 | 53.40440 | 10.03886 | 6931 ft | 263 kts | 276° |
| 2026-05-05 18:13 | 53.40645 | 10.00814 | 6586 ft | 261 kts | 276° |
| 2026-05-05 18:13 | 53.40836 | 9.97837 | 6199 ft | 261 kts | 276° |
| 2026-05-05 18:13 | 53.41028 | 9.94777 | 5804 ft | 260 kts | 276° |
| 2026-05-05 18:13 | 53.41209 | 9.91808 | 5434 ft | 259 kts | 276° |
| 2026-05-05 18:14 | 53.41389 | 9.88803 | 5051 ft | 259 kts | 276° |
| 2026-05-05 18:14 | 53.41566 | 9.85799 | 4676 ft | 259 kts | 276° |
| 2026-05-05 18:14 | 53.41732 | 9.82797 | 4280 ft | 259 kts | 276° |
| 2026-05-05 18:14 | 53.41882 | 9.79810 | 4045 ft | 253 kts | 276° |
| 2026-05-05 18:15 | 53.42052 | 9.76847 | 3997 ft | 259 kts | 283° |
| 2026-05-05 18:15 | 53.42809 | 9.74164 | 3982 ft | 253 kts | 312° |
| 2026-05-05 18:15 | 53.44103 | 9.72264 | 3937 ft | 242 kts | 323° |
| 2026-05-05 18:15 | 53.45394 | 9.70570 | 3737 ft | 230 kts | 323° |
| 2026-05-05 18:16 | 53.46672 | 9.68984 | 3332 ft | 226 kts | 335° |
| 2026-05-05 18:16 | 53.48151 | 9.68634 | 3059 ft | 217 kts | 18° |
| 2026-05-05 18:16 | 53.49390 | 9.70043 | 3020 ft | 220 kts | 49° |
| 2026-05-05 18:16 | 53.50331 | 9.72057 | 3001 ft | 218 kts | 53° |
| 2026-05-05 18:17 | 53.51237 | 9.74090 | 3004 ft | 217 kts | 53° |
| 2026-05-05 18:17 | 53.52151 | 9.76123 | 3000 ft | 218 kts | 52° |
| 2026-05-05 18:17 | 53.53061 | 9.78122 | 2973 ft | 218 kts | 52° |
| 2026-05-05 18:17 | 53.53989 | 9.80131 | 2633 ft | 214 kts | 52° |
| 2026-05-05 18:18 | 53.54905 | 9.82090 | 2338 ft | 213 kts | 52° |
| 2026-05-05 18:18 | 53.55818 | 9.84020 | 2039 ft | 211 kts | 51° |
| 2026-05-05 18:18 | 53.56724 | 9.85916 | 1745 ft | 200 kts | 51° |
| 2026-05-05 18:18 | 53.57566 | 9.87662 | 1485 ft | 183 kts | 51° |
| 2026-05-05 18:19 | 53.58322 | 9.89222 | 1253 ft | 163 kts | 51° |
| 2026-05-05 18:19 | 53.59001 | 9.90639 | 1021 ft | 149 kts | 51° |
| 2026-05-05 18:19 | 53.59634 | 9.91926 | 822 ft | 138 kts | 50° |
| 2026-05-05 18:19 | 53.60232 | 9.93138 | 632 ft | 130 kts | 51° |
| 2026-05-05 18:20 | 53.60774 | 9.94236 | 434 ft | 126 kts | 51° |
| 2026-05-05 18:20 | 53.61361 | 9.95425 | 298 ft | 137 kts | 52° |
| 2026-05-05 18:20 | 53.61975 | 9.96671 | 114 ft | 141 kts | 51° |
| 2026-05-05 18:20 | 53.62568 | 9.97889 | 59 ft | 126 kts | 50° |
| 2026-05-05 18:21 | 53.63009 | 9.98760 | 49 ft | 65 kts | 51° |
| 2026-05-05 18:21 | 53.63260 | 9.99276 | 49 ft | 43 kts | 53° |
| 2026-05-05 18:21 | 53.63287 | 9.99561 | 49 ft | 23 kts | 97° |
| 2026-05-05 18:21 | 53.63279 | 9.99632 | 50 ft | 0 kts | 98° |
| 2026-05-05 18:22 | 53.63278 | 9.99646 | 50 ft | 3 kts | 98° |
| 2026-05-05 18:23 | 53.63273 | 9.99714 | 50 ft | 8 kts | 92° |
| 2026-05-05 18:23 | 53.63303 | 9.99812 | 50 ft | 12 kts | 49° |
| 2026-05-05 18:23 | 53.63364 | 9.99934 | 50 ft | 15 kts | 50° |
| 2026-05-05 18:23 | 53.63401 | 10.00009 | 50 ft | 0 kts | 50° |
| 2026-05-05 18:27 | 53.63402 | 10.00010 | 50 ft | 1 kts | 50° |
| 2026-05-05 18:27 | 53.63419 | 10.00045 | 50 ft | 7 kts | 50° |
| 2026-05-05 18:27 | 53.63445 | 10.00138 | 48 ft | 10 kts | 76° |
| 2026-05-05 18:27 | 53.63447 | 10.00232 | 50 ft | 0 kts | 89° |
| 2026-05-05 18:28 | 53.63447 | 10.00231 | 50 ft | 1 kts | 89° |
| 2026-05-05 18:28 | 53.63449 | 10.00287 | 37 ft | 4 kts | 86° |
| 2026-05-05 18:28 | 53.63449 | 10.00310 | 50 ft | 0 kts | 88° |
| 2026-05-05 18:29 | 53.63449 | 10.00312 | 50 ft | 0 kts | 88° |